Time;durP1;ratioP1;P1;durP2;ratioP2;P2;SDS_P1;SDS_P2;PMS_P1;PMS_P2;Temp;Humidity;BMP_temperature;BMP_pressure;BME280_temperature;BME280_humidity;BME280_pressure;Samples;Min_cycle;Max_cycle;Signal;HPM_P1;HPM_P2
2022/12/26 00:00:10;;;;;;;15.07;12.70;;;;;;;8.88;98.10;98105.50;4156977;28;20215;-93
2022/12/26 00:02:14;;;;;;;14.40;12.90;;;;;;;8.86;97.73;98104.78;4153761;28;20233;-94
2022/12/26 00:04:18;;;;;;;15.05;13.48;;;;;;;8.85;97.99;98106.50;4162841;28;21224;-95
2022/12/26 00:06:41;;;;;;;14.25;12.85;;;;;;;8.86;97.63;98091.78;4142711;28;20199;-95
2022/12/26 00:08:46;;;;;;;17.80;13.60;;;;;;;8.90;98.59;98103.63;4155203;28;20215;-94
2022/12/26 00:10:49;;;;;;;14.80;13.25;;;;;;;8.91;98.21;98105.31;4172503;28;20206;-95
2022/12/26 00:12:52;;;;;;;66.22;31.55;;;;;;;8.90;97.81;98114.03;4143091;28;20207;-94
2022/12/26 00:15:17;;;;;;;25.23;15.47;;;;;;;8.89;98.46;98112.38;4140820;28;20207;-94
2022/12/26 00:17:20;;;;;;;14.50;13.00;;;;;;;8.91;98.59;98107.91;4139727;28;20627;-95
2022/12/26 00:19:23;;;;;;;13.63;12.23;;;;;;;8.88;98.52;98110.69;4155695;28;20260;-95
2022/12/26 00:21:27;;;;;;;13.70;12.30;;;;;;;8.83;98.54;98107.56;4142618;28;20213;-95
2022/12/26 00:23:31;;;;;;;15.55;13.05;;;;;;;8.86;99.18;98116.00;4138760;28;20234;-95
2022/12/26 00:25:34;;;;;;;14.43;12.18;;;;;;;8.89;98.55;98118.41;4155464;28;20199;-94
2022/12/26 00:27:38;;;;;;;13.30;12.00;;;;;;;8.87;98.31;98130.69;4156581;28;20749;-95
2022/12/26 00:29:41;;;;;;;12.90;11.60;;;;;;;8.88;98.86;98123.69;4169197;28;20212;-94
2022/12/26 00:31:46;;;;;;;13.67;11.87;;;;;;;8.90;99.48;98119.25;4173917;28;20206;-95
2022/12/26 00:33:49;;;;;;;14.30;12.15;;;;;;;8.93;98.88;98123.34;4168413;28;21295;-95
2022/12/26 00:35:52;;;;;;;15.05;12.15;;;;;;;8.92;98.78;98120.00;4145230;28;20235;-95
2022/12/26 00:37:56;;;;;;;12.70;11.50;;;;;;;8.95;99.88;98126.66;4156763;28;20235;-94
2022/12/26 00:39:59;;;;;;;15.93;12.93;;;;;;;8.96;99.55;98123.16;4172492;28;20658;-94
2022/12/26 00:42:02;;;;;;;26.52;15.63;;;;;;;8.96;99.50;98128.34;4154680;28;20211;-95
2022/12/26 00:44:17;;;;;;;21.35;14.88;;;;;;;8.94;99.14;98121.56;4147275;28;20298;-92
2022/12/26 00:46:20;;;;;;;19.02;13.30;;;;;;;8.92;98.88;98122.59;4167415;28;20214;-94
2022/12/26 00:48:25;;;;;;;26.33;14.40;;;;;;;8.91;99.90;98129.53;4159735;28;20575;-92
2022/12/26 00:50:29;;;;;;;36.47;16.27;;;;;;;8.91;99.40;98124.34;4157230;28;20244;-94
2022/12/26 00:52:37;;;;;;;19.00;13.90;;;;;;;8.92;99.63;98128.63;4158940;28;20650;-95
2022/12/26 00:54:40;;;;;;;21.17;14.60;;;;;;;8.93;100.00;98122.50;4148327;28;20664;-95
2022/12/26 00:56:43;;;;;;;21.25;13.70;;;;;;;8.89;100.00;98115.00;4171215;28;20659;-94
2022/12/26 00:58:46;;;;;;;16.80;14.65;;;;;;;8.91;99.42;98115.72;4186148;28;20205;-95
2022/12/26 01:00:50;;;;;;;18.83;14.18;;;;;;;8.88;98.91;98100.31;4154809;28;20210;-94
2022/12/26 01:02:54;;;;;;;14.52;12.48;;;;;;;8.89;99.16;98101.97;4158468;28;20242;-95
2022/12/26 01:04:59;;;;;;;14.95;11.30;;;;;;;8.96;99.17;98104.94;4154532;28;20203;-93
2022/12/26 01:07:02;;;;;;;10.85;9.65;;;;;;;9.03;99.08;98115.78;4138188;28;20202;-94
2022/12/26 01:09:05;;;;;;;7.63;6.70;;;;;;;9.05;100.00;98103.50;4142592;28;20741;-94
2022/12/26 01:11:11;;;;;;;12.77;11.13;;;;;;;9.14;100.00;98122.00;4137287;28;20642;-95
2022/12/26 01:13:14;;;;;;;31.67;13.00;;;;;;;9.16;100.00;98116.72;4153291;28;21242;-94
2022/12/26 01:15:17;;;;;;;25.93;12.77;;;;;;;9.14;100.00;98116.81;4150845;28;20716;-94
2022/12/26 01:17:21;;;;;;;18.90;11.90;;;;;;;9.14;100.00;98116.81;4152420;28;20657;-95
2022/12/26 01:19:24;;;;;;;24.73;13.20;;;;;;;9.13;100.00;98107.31;4150818;28;20211;-95
2022/12/26 01:21:28;;;;;;;22.50;11.80;;;;;;;9.14;99.73;98105.53;4144419;28;20196;-94
2022/12/26 01:23:32;;;;;;;17.50;11.73;;;;;;;9.11;99.41;98105.72;4185324;28;20660;-93
2022/12/26 01:25:35;;;;;;;17.87;11.93;;;;;;;9.07;99.72;98107.69;4140896;28;20210;-94
2022/12/26 01:27:58;;;;;;;16.90;12.53;;;;;;;9.07;99.63;98110.31;4144267;28;20622;-94
2022/12/26 01:30:01;;;;;;;15.55;10.55;;;;;;;9.09;99.51;98118.84;4168746;28;20734;-94
2022/12/26 01:32:05;;;;;;;14.10;10.43;;;;;;;9.09;99.18;98115.41;4144678;28;20215;-93
2022/12/26 01:34:08;;;;;;;11.05;9.65;;;;;;;9.10;99.95;98117.91;4159936;28;20653;-93
2022/12/26 01:36:12;;;;;;;11.25;9.10;;;;;;;9.02;98.81;98120.16;4162989;28;20604;-95
2022/12/26 01:38:34;;;;;;;10.40;9.35;;;;;;;8.98;99.19;98110.88;4155972;28;20203;-94
2022/12/26 01:40:42;;;;;;;9.05;8.15;;;;;;;9.01;99.07;98134.09;4174804;28;20289;-95
2022/12/26 01:42:45;;;;;;;10.68;8.10;;;;;;;9.03;99.48;98121.00;4177434;28;20208;-95
2022/12/26 01:45:02;;;;;;;8.50;7.70;;;;;;;9.04;99.35;98127.88;4160202;28;20217;-95
2022/12/26 01:47:06;;;;;;;10.00;5.65;;;;;;;9.01;99.51;98134.09;4172713;28;20241;-95
2022/12/26 01:49:15;;;;;;;8.35;6.78;;;;;;;9.04;99.67;98138.28;4148786;28;20663;-94
2022/12/26 01:51:19;;;;;;;8.88;7.43;;;;;;;9.05;99.85;98125.19;4145562;28;20727;-95
2022/12/26 01:53:37;;;;;;;12.80;8.32;;;;;;;9.04;99.95;98128.69;4145585;28;20219;-95
2022/12/26 01:55:42;;;;;;;16.85;11.80;;;;;;;9.00;99.07;98140.22;4187834;28;20206;-94
2022/12/26 01:57:48;;;;;;;15.02;9.40;;;;;;;8.97;99.01;98130.00;4176395;28;20573;-95
2022/12/26 01:59:52;;;;;;;10.48;9.38;;;;;;;8.97;98.09;98129.16;4154739;28;20206;-94
2022/12/26 02:01:55;;;;;;;13.85;10.00;;;;;;;8.95;98.76;98121.47;4190997;28;20216;-95
2022/12/26 02:06:20;;;;;;;10.27;6.38;;;;;;;9.11;99.86;98123.94;4159986;28;20203;-95
2022/12/26 02:08:40;;;;;;;7.80;6.90;;;;;;;9.17;100.00;98120.97;4160106;28;20235;-94
2022/12/26 02:10:47;;;;;;;12.80;8.35;;;;;;;9.20;100.00;98129.44;4155888;28;20207;-94
2022/12/26 02:12:50;;;;;;;8.25;6.80;;;;;;;9.22;100.00;98126.75;4146083;28;20211;-94
2022/12/26 02:14:53;;;;;;;8.48;7.20;;;;;;;9.25;100.00;98123.94;4186624;28;20221;-94
2022/12/26 02:16:56;;;;;;;42.17;12.70;;;;;;;9.28;100.00;98129.78;4145827;28;20214;-95
2022/12/26 02:19:00;;;;;;;23.83;9.65;;;;;;;9.31;100.00;98126.16;4188506;28;20644;-95
2022/12/26 02:21:14;;;;;;;26.85;11.90;;;;;;;9.34;100.00;98131.19;4172063;28;20204;-94
2022/12/26 02:23:53;;;;;;;33.37;12.27;;;;;;;9.34;100.00;98125.97;4173127;28;20759;-92
2022/12/26 02:26:10;;;;;;;24.63;10.73;;;;;;;9.29;99.86;98123.66;4143645;28;21200;-95
2022/12/26 02:30:50;;;;;;;23.90;10.67;;;;;;;9.24;99.59;98119.66;4156986;28;20211;-95
2022/12/26 02:33:14;;;;;;;23.77;10.20;;;;;;;9.23;99.83;98123.19;4146875;28;20668;-94
2022/12/26 02:35:24;;;;;;;17.48;8.65;;;;;;;9.23;99.59;98120.59;4161549;28;20662;-94
2022/12/26 02:37:40;;;;;;;14.67;11.13;;;;;;;9.24;99.49;98130.91;4162404;28;20790;-93
2022/12/26 02:39:56;;;;;;;12.93;8.55;;;;;;;9.26;99.85;98123.84;4171117;28;20635;-93
2022/12/26 02:42:05;;;;;;;8.43;7.13;;;;;;;9.30;99.67;98127.09;4158729;28;20213;-94
2022/12/26 02:49:16;;;;;;;7.43;6.40;;;;;;;9.39;100.00;98129.94;4139168;28;20223;-95
2022/12/26 03:13:37;;;;;;;9.13;6.60;;;;;;;9.31;100.00;98147.81;4154762;28;20212;-94
2022/12/26 03:18:07;;;;;;;9.53;7.27;;;;;;;9.30;100.00;98151.34;4161574;28;21036;-94
2022/12/26 03:20:14;;;;;;;8.40;7.57;;;;;;;9.29;100.00;98149.69;4144113;28;21077;-93
2022/12/26 03:22:30;;;;;;;8.60;6.97;;;;;;;9.30;100.00;98151.34;4143299;28;21149;-95
2022/12/26 03:26:38;;;;;;;7.88;7.10;;;;;;;9.31;100.00;98137.41;4160518;28;20736;-94
2022/12/26 03:27:01;;;;;;;7.80;6.55;;;;;;;9.30;100.00;98135.72;4159793;28;20233;-93
2022/12/26 03:31:32;;;;;;;7.70;6.57;;;;;;;9.28;99.96;98116.78;4136928;28;20223;-94
2022/12/26 03:36:12;;;;;;;8.10;7.27;;;;;;;9.27;99.57;98127.28;4159829;28;20657;-94
2022/12/26 03:38:16;;;;;;;10.30;7.10;;;;;;;9.26;100.00;98121.25;4160236;28;20676;-93
2022/12/26 04:19:24;;;;;;;7.47;5.00;;;;;;;9.89;100.00;98136.19;4163448;28;20717;-94
2022/12/26 04:46:24;;;;;;;8.37;6.70;;;;;;;10.22;99.01;98145.25;4087760;29;20650;-94
2022/12/26 04:51:04;;;;;;;7.00;5.63;;;;;;;10.18;98.69;98151.63;4150482;28;22527;-94
2022/12/26 04:53:07;;;;;;;9.80;7.47;;;;;;;10.21;98.58;98148.81;4155547;28;20625;-95
2022/12/26 04:55:11;;;;;;;7.23;4.90;;;;;;;10.27;97.74;98145.81;4169551;28;20628;-95
2022/12/26 04:57:15;;;;;;;7.30;4.97;;;;;;;10.32;98.94;98143.72;4148885;28;21246;-95
2022/12/26 04:59:19;;;;;;;67.10;15.97;;;;;;;10.37;98.67;98141.63;4154609;28;20649;-94
2022/12/26 05:11:25;;;;;;;6.67;4.57;;;;;;;10.60;97.79;98136.56;4187087;28;20662;-95
2022/12/26 05:13:57;;;;;;;6.30;4.20;;;;;;;10.72;96.85;98134.88;4145035;28;20670;-95
2022/12/26 05:29:02;;;;;;;4.07;3.07;;;;;;;11.39;95.70;98143.97;4159576;28;20643;-95
2022/12/26 05:31:06;;;;;;;5.93;3.50;;;;;;;11.45;94.33;98148.78;4154522;28;20641;-94
2022/12/26 05:35:36;;;;;;;4.47;3.47;;;;;;;11.45;93.41;98152.22;4153854;28;20633;-94
2022/12/26 05:37:40;;;;;;;4.30;3.23;;;;;;;11.49;93.94;98139.81;4151137;28;20741;-94
2022/12/26 05:39:43;;;;;;;4.30;3.53;;;;;;;11.53;93.69;98142.09;4172429;28;20662;-95
2022/12/26 05:41:46;;;;;;;7.97;4.63;;;;;;;11.59;93.46;98135.59;4146354;28;20631;-93
2022/12/26 05:43:49;;;;;;;4.43;3.63;;;;;;;11.61;93.56;98137.16;4160215;28;20743;-96
2022/12/26 05:45:54;;;;;;;4.57;3.20;;;;;;;11.64;92.62;98138.72;4154773;28;20692;-96
2022/12/26 05:47:59;;;;;;;4.23;3.30;;;;;;;11.66;93.79;98135.03;4173852;28;20645;-95
2022/12/26 05:50:02;;;;;;;3.80;3.40;;;;;;;11.70;92.60;98140.88;4171691;28;20716;-96
2022/12/26 05:52:06;;;;;;;4.93;3.97;;;;;;;11.72;93.00;98133.78;4158481;28;20641;-94
2022/12/26 05:54:09;;;;;;;3.33;3.00;;;;;;;11.75;92.62;98137.81;4146914;28;21185;-96
2022/12/26 05:56:55;;;;;;;5.60;3.00;;;;;;;11.85;92.99;98144.06;4154598;28;21486;-94
2022/12/26 05:58:59;;;;;;;3.93;3.17;;;;;;;11.89;91.65;98155.13;4170713;28;20641;-95
2022/12/26 06:01:09;;;;;;;3.90;3.23;;;;;;;11.92;91.29;98158.38;4155978;28;20627;-95
2022/12/26 06:03:12;;;;;;;4.23;3.00;;;;;;;11.95;91.63;98166.00;4160646;28;20690;-96
2022/12/26 06:05:24;;;;;;;6.13;3.30;;;;;;;12.00;91.38;98156.03;4173096;28;20731;-95
2022/12/26 06:07:28;;;;;;;3.93;3.40;;;;;;;12.03;90.53;98149.75;4176114;28;20736;-96
2022/12/26 06:09:32;;;;;;;4.93;3.57;;;;;;;12.07;91.71;98148.56;4146017;28;20708;-95
2022/12/26 06:11:35;;;;;;;4.07;3.57;;;;;;;12.09;90.16;98154.50;4157644;28;20633;-95
2022/12/26 06:13:39;;;;;;;5.10;3.37;;;;;;;12.06;91.40;98147.72;4154201;28;20669;-94
2022/12/26 06:15:54;;;;;;;3.70;3.27;;;;;;;12.10;90.19;98154.38;4150783;28;20725;-95
2022/12/26 06:17:59;;;;;;;5.30;3.53;;;;;;;12.11;90.95;98163.09;4189386;28;22122;-95
2022/12/26 06:20:03;;;;;;;3.70;2.90;;;;;;;12.07;89.63;98154.63;4156906;28;21250;-95
2022/12/26 06:22:07;;;;;;;5.20;3.60;;;;;;;12.08;90.04;98158.91;4168008;28;20665;-95
2022/12/26 06:24:16;;;;;;;4.10;3.70;;;;;;;12.15;89.47;98159.28;4139209;28;21019;-96
2022/12/26 06:26:19;;;;;;;3.57;2.97;;;;;;;12.14;89.00;98158.44;4170341;28;20701;-95
2022/12/26 06:28:23;;;;;;;4.73;3.30;;;;;;;12.14;89.86;98158.44;4171683;28;20708;-93
2022/12/26 06:30:27;;;;;;;3.60;3.10;;;;;;;12.16;88.55;98164.41;4148329;28;20640;-93
2022/12/26 06:32:30;;;;;;;10.60;2.90;;;;;;;12.16;88.56;98159.16;4143836;28;20684;-95
2022/12/26 06:34:35;;;;;;;4.17;3.23;;;;;;;12.21;89.07;98161.44;4145421;28;20716;-95
2022/12/26 06:36:38;;;;;;;3.60;3.00;;;;;;;12.22;88.83;98158.72;4158635;28;20730;-95
2022/12/26 06:39:03;;;;;;;4.00;2.80;;;;;;;12.23;88.48;98163.00;4191813;28;20632;-92
2022/12/26 06:41:07;;;;;;;4.10;2.70;;;;;;;12.23;88.49;98170.84;4143822;28;21093;-95
2022/12/26 06:43:10;;;;;;;5.03;3.03;;;;;;;12.23;88.29;98166.44;4169725;28;20698;-95
2022/12/26 06:45:14;;;;;;;4.80;3.37;;;;;;;12.23;89.45;98171.69;4144912;28;20677;-94
2022/12/26 06:47:17;;;;;;;3.10;2.67;;;;;;;12.23;88.28;98174.28;4155728;28;20670;-95
2022/12/26 06:49:31;;;;;;;3.53;3.10;;;;;;;12.23;88.49;98157.78;4144167;28;20648;-95
2022/12/26 06:51:36;;;;;;;3.90;2.93;;;;;;;12.24;87.96;98160.28;4157815;28;20673;-95
2022/12/26 06:53:40;;;;;;;6.13;3.20;;;;;;;12.26;88.27;98160.16;4186209;28;20631;-95
2022/12/26 06:55:43;;;;;;;3.30;2.87;;;;;;;12.27;88.27;98162.66;4168973;28;20739;-95
2022/12/26 06:57:46;;;;;;;4.47;2.83;;;;;;;12.28;88.44;98159.13;4133774;28;20766;-94
2022/12/26 06:59:49;;;;;;;4.00;3.33;;;;;;;12.32;88.63;98164.94;4138324;28;20627;-95
2022/12/26 07:01:53;;;;;;;4.00;3.17;;;;;;;12.33;87.46;98149.13;4139155;28;20661;-95
2022/12/26 07:03:57;;;;;;;4.07;2.97;;;;;;;12.36;87.58;98162.00;4137126;28;20692;-94
2022/12/26 07:06:03;;;;;;;5.60;3.33;;;;;;;12.39;87.99;98163.56;4160870;28;20640;-95
2022/12/26 07:08:07;;;;;;;4.63;3.00;;;;;;;12.41;87.14;98164.25;4173514;28;20633;-95
2022/12/26 07:10:11;;;;;;;3.63;3.17;;;;;;;12.43;88.00;98172.81;4141063;28;20635;-94
2022/12/26 07:12:14;;;;;;;4.23;2.70;;;;;;;12.45;87.84;98176.19;4157912;28;20665;-95
2022/12/26 07:14:45;;;;;;;4.57;3.20;;;;;;;12.48;88.24;98176.78;4161064;28;21159;-95
2022/12/26 07:16:48;;;;;;;4.73;3.40;;;;;;;12.47;87.44;98169.88;4145232;28;21221;-96
2022/12/26 07:18:53;;;;;;;3.77;2.93;;;;;;;12.50;87.26;98172.25;4178164;28;20710;-95
2022/12/26 07:20:56;;;;;;;7.00;3.30;;;;;;;12.50;87.46;98179.28;4142354;28;20747;-95
2022/12/26 07:23:00;;;;;;;4.77;3.47;;;;;;;12.51;87.68;98175.69;4175418;28;20635;-94
2022/12/26 07:25:28;;;;;;;3.83;2.97;;;;;;;12.55;86.98;98171.91;4156343;28;20981;-94
2022/12/26 07:27:32;;;;;;;3.83;2.90;;;;;;;12.55;87.41;98177.97;4154767;28;20639;-92
2022/12/26 07:29:35;;;;;;;3.63;2.93;;;;;;;12.57;86.70;98170.84;4156911;28;20646;-95
2022/12/26 07:31:39;;;;;;;4.20;2.97;;;;;;;12.59;87.53;98174.19;4169687;28;21255;-94
2022/12/26 07:33:55;;;;;;;4.03;2.87;;;;;;;12.60;88.04;98180.25;4155869;28;20685;-95
2022/12/26 07:35:59;;;;;;;4.40;3.30;;;;;;;12.61;88.62;98176.69;4175311;28;21223;-95
2022/12/26 07:38:02;;;;;;;5.97;3.70;;;;;;;12.62;88.85;98173.13;4154686;28;20753;-94
2022/12/26 07:40:06;;;;;;;7.70;4.03;;;;;;;12.60;89.62;98175.88;4160776;28;20696;-94
2022/12/26 07:42:13;;;;;;;4.90;3.40;;;;;;;12.56;90.77;98171.78;4176227;28;20661;-95
2022/12/26 07:44:17;;;;;;;9.43;5.67;;;;;;;12.55;90.66;98166.69;4172275;28;20741;-95
2022/12/26 07:46:21;;;;;;;12.37;8.80;;;;;;;12.54;89.82;98165.84;4154296;28;20670;-95
2022/12/26 07:48:55;;;;;;;7.30;5.30;;;;;;;12.55;89.91;98177.97;4143742;28;20684;-93
2022/12/26 07:51:01;;;;;;;11.80;7.53;;;;;;;12.54;90.65;98183.31;4160007;28;20748;-94
2022/12/26 07:53:04;;;;;;;12.83;8.60;;;;;;;12.51;91.25;98181.78;4140737;28;20658;-94
2022/12/26 07:55:08;;;;;;;9.77;7.47;;;;;;;12.47;91.29;98179.50;4175577;28;20635;-95
2022/12/26 07:57:13;;;;;;;7.77;6.30;;;;;;;12.50;91.13;98189.75;4162815;28;20644;-93
2022/12/26 07:59:36;;;;;;;8.70;7.07;;;;;;;12.44;91.58;98190.19;4169985;28;21214;-93
2022/12/26 08:01:39;;;;;;;9.30;6.50;;;;;;;12.37;93.03;98192.44;4152444;28;20635;-92
2022/12/26 08:03:58;;;;;;;7.73;5.90;;;;;;;12.29;91.59;98191.31;4150673;28;20631;-94
2022/12/26 08:06:02;;;;;;;9.80;7.10;;;;;;;12.26;93.31;98181.09;4158718;28;20658;-94
2022/12/26 08:08:06;;;;;;;7.67;6.80;;;;;;;12.20;91.91;98173.69;4185786;28;20679;-94
2022/12/26 08:10:09;;;;;;;8.67;7.77;;;;;;;12.11;91.99;98173.53;4176240;28;20728;-96
2022/12/26 08:12:15;;;;;;;8.53;7.73;;;;;;;12.04;92.29;98172.31;4145671;28;20635;-96
2022/12/26 08:14:18;;;;;;;12.37;9.43;;;;;;;11.99;93.60;98170.03;4170382;28;21219;-94
2022/12/26 08:16:21;;;;;;;11.30;8.73;;;;;;;11.97;93.71;98168.50;4138544;28;20693;-96
2022/12/26 08:18:25;;;;;;;8.97;7.70;;;;;;;11.96;94.04;98175.47;4157661;28;21416;-95
2022/12/26 08:20:44;;;;;;;7.60;6.57;;;;;;;11.94;93.88;98176.56;4153430;28;20618;-96
2022/12/26 08:22:47;;;;;;;6.60;6.00;;;;;;;11.88;94.67;98169.97;4142858;28;20646;-93
2022/12/26 08:24:51;;;;;;;7.20;6.50;;;;;;;11.87;93.76;98176.13;4176584;28;20629;-94
2022/12/26 08:26:54;;;;;;;7.50;6.80;;;;;;;11.89;94.83;98176.88;4174051;28;21132;-96
2022/12/26 08:29:30;;;;;;;7.50;6.80;;;;;;;11.89;95.79;98176.03;4139502;28;20631;-95
2022/12/26 08:31:33;;;;;;;9.67;8.40;;;;;;;11.84;95.19;98183.38;4186719;28;20674;-92
2022/12/26 08:33:38;;;;;;;10.07;8.50;;;;;;;11.82;96.03;98190.50;4187045;28;20631;-95
2022/12/26 08:35:41;;;;;;;8.57;7.77;;;;;;;11.79;95.38;98191.53;4141448;28;22123;-96
2022/12/26 08:37:47;;;;;;;8.20;6.53;;;;;;;11.81;96.08;98194.03;4163375;28;20716;-96
2022/12/26 08:39:51;;;;;;;6.67;6.07;;;;;;;11.79;95.75;98194.16;4171697;28;20690;-96
2022/12/26 08:41:54;;;;;;;6.80;5.97;;;;;;;11.79;96.52;98199.38;4151733;28;20679;-95
2022/12/26 08:43:58;;;;;;;6.70;6.00;;;;;;;11.77;96.60;98192.59;4152895;28;20650;-96
2022/12/26 08:46:23;;;;;;;7.30;5.13;;;;;;;11.78;96.36;98202.09;4159486;28;20753;-94
2022/12/26 08:48:27;;;;;;;7.20;5.90;;;;;;;11.77;96.59;98203.88;4138287;28;20649;-95
2022/12/26 08:50:30;;;;;;;7.13;6.43;;;;;;;11.79;97.47;98216.84;4140357;28;21703;-96
2022/12/26 08:52:38;;;;;;;8.10;6.60;;;;;;;11.77;98.23;98216.97;4168780;28;20636;-96
2022/12/26 08:54:43;;;;;;;6.00;5.40;;;;;;;11.79;97.82;98225.50;4166369;28;21184;-96
2022/12/26 08:56:47;;;;;;;6.47;5.67;;;;;;;11.79;97.76;98228.13;4153114;28;20625;-95
2022/12/26 08:58:51;;;;;;;6.87;5.13;;;;;;;11.78;98.08;98221.22;4146167;28;20650;-96
2022/12/26 09:00:54;;;;;;;7.10;5.43;;;;;;;11.78;97.61;98233.47;4185283;28;20632;-96
2022/12/26 09:03:00;;;;;;;8.13;5.53;;;;;;;11.76;97.72;98244.00;4144667;28;20646;-94
2022/12/26 09:05:03;;;;;;;8.77;5.93;;;;;;;11.76;97.15;98262.31;4140455;28;20622;-95
2022/12/26 09:07:08;;;;;;;9.10;6.27;;;;;;;11.72;97.92;98267.84;4171671;28;20629;-95
2022/12/26 09:09:12;;;;;;;8.27;6.47;;;;;;;11.69;98.33;98272.47;4164879;28;20703;-96
2022/12/26 09:11:17;;;;;;;8.60;7.07;;;;;;;11.66;98.43;98277.91;4179600;28;20640;-96
2022/12/26 09:13:20;;;;;;;22.30;8.43;;;;;;;11.64;100.00;98290.25;4185251;28;20670;-95
2022/12/26 09:15:51;;;;;;;9.53;8.27;;;;;;;11.64;99.26;98311.16;4142600;28;21343;-96
2022/12/26 09:17:54;;;;;;;10.20;8.60;;;;;;;11.60;99.54;98310.50;4156771;28;20642;-96
2022/12/26 09:20:00;;;;;;;10.50;9.10;;;;;;;11.57;99.03;98315.13;4173506;28;20664;-95
2022/12/26 09:24:25;;;;;;;9.30;7.90;;;;;;;11.52;99.83;98331.09;4155217;28;21086;-96
2022/12/26 09:26:28;;;;;;;9.77;8.00;;;;;;;11.53;100.00;98324.94;4172900;28;20640;-96
2022/12/26 09:28:50;;;;;;;7.43;6.20;;;;;;;11.44;100.00;98335.97;4171641;28;21052;-94
2022/12/26 09:30:53;;;;;;;8.33;6.13;;;;;;;11.45;100.00;98336.81;4174173;28;20634;-94
2022/12/26 09:32:56;;;;;;;7.90;6.03;;;;;;;11.48;100.00;98336.63;4153257;28;20649;-95
2022/12/26 09:35:01;;;;;;;6.60;5.87;;;;;;;11.50;100.00;98339.97;4155678;28;21250;-94
2022/12/26 09:37:05;;;;;;;6.60;5.80;;;;;;;11.52;100.00;98344.16;4153645;28;21041;-95
2022/12/26 09:39:08;;;;;;;7.00;6.07;;;;;;;11.55;100.00;98348.34;4184802;28;20758;-94
2022/12/26 09:41:21;;;;;;;8.13;5.60;;;;;;;11.56;100.00;98352.63;4152868;28;20641;-94
2022/12/26 09:43:29;;;;;;;6.10;5.27;;;;;;;11.57;100.00;98357.72;4173486;28;20624;-95
2022/12/26 09:45:44;;;;;;;7.57;5.80;;;;;;;11.59;100.00;98355.00;4140439;28;20680;-93
2022/12/26 09:47:55;;;;;;;6.23;5.60;;;;;;;11.60;100.00;98352.28;4139614;28;20634;-92
2022/12/26 09:50:03;;;;;;;6.77;5.20;;;;;;;11.64;100.00;98363.41;4176612;28;21251;-94
2022/12/26 09:52:10;;;;;;;8.50;5.10;;;;;;;11.67;100.00;98357.97;4169293;28;20731;-94
2022/12/26 09:54:19;;;;;;;6.90;5.07;;;;;;;11.66;100.00;98369.34;4164512;28;20645;-96
2022/12/26 09:56:26;;;;;;;6.00;5.40;;;;;;;11.67;100.00;98374.47;4148650;28;20679;-96
2022/12/26 09:58:53;;;;;;;8.03;5.40;;;;;;;11.65;100.00;98367.66;4164529;28;20664;-94
2022/12/26 10:01:00;;;;;;;7.60;5.90;;;;;;;11.62;100.00;98375.69;4144276;28;21090;-96
2022/12/26 10:03:06;;;;;;;7.30;5.47;;;;;;;11.56;100.00;98373.50;4172514;28;20740;-96
2022/12/26 10:05:14;;;;;;;6.93;5.50;;;;;;;11.56;100.00;98371.75;4180810;28;20634;-95
2022/12/26 10:07:24;;;;;;;8.97;5.77;;;;;;;11.60;100.00;98375.81;4150369;28;20642;-93
2022/12/26 10:09:54;;;;;;;5.97;5.00;;;;;;;11.57;100.00;98378.63;4145527;28;20664;-96
2022/12/26 10:12:13;;;;;;;8.93;5.10;;;;;;;11.58;100.00;98389.94;4197677;28;20632;-96
2022/12/26 10:14:21;;;;;;;9.10;5.67;;;;;;;11.57;100.00;98383.03;4142596;28;20638;-95
2022/12/26 10:16:37;;;;;;;5.70;5.10;;;;;;;11.56;100.00;98397.00;4152043;28;20652;-95
2022/12/26 10:18:56;;;;;;;5.07;4.40;;;;;;;11.57;100.00;98385.63;4145666;28;20641;-96
2022/12/26 10:21:19;;;;;;;6.33;5.10;;;;;;;11.62;100.00;98397.47;4150326;28;20633;-96
2022/12/26 10:28:02;;;;;;;6.00;4.50;;;;;;;11.67;100.00;98371.84;4156199;28;21042;-93
2022/12/26 10:30:08;;;;;;;7.13;5.30;;;;;;;11.67;100.00;98376.25;4192289;28;20625;-93
2022/12/26 10:35:02;;;;;;;6.10;4.40;;;;;;;11.70;100.00;98373.41;4167770;28;20640;-93
2022/12/26 10:37:13;;;;;;;5.80;4.50;;;;;;;11.72;100.00;98376.75;4151162;28;20642;-93
2022/12/26 10:39:21;;;;;;;4.83;3.90;;;;;;;11.73;100.00;98387.13;4174596;28;20634;-96
2022/12/26 10:41:33;;;;;;;6.00;4.43;;;;;;;11.77;100.00;98386.81;4144299;28;21190;-96
2022/12/26 10:43:47;;;;;;;6.47;4.40;;;;;;;11.81;100.00;98388.25;4182115;28;20633;-96
2022/12/26 10:46:16;;;;;;;8.00;5.83;;;;;;;11.85;100.00;98392.34;4158897;28;21014;-94
2022/12/26 10:48:19;;;;;;;5.20;4.37;;;;;;;11.88;100.00;98402.56;4135376;28;21583;-96
2022/12/26 10:50:46;;;;;;;5.33;4.10;;;;;;;11.88;100.00;98399.13;4167440;28;20626;-93
2022/12/26 10:56:07;;;;;;;5.50;3.93;;;;;;;11.88;100.00;98399.13;4161367;28;21273;-94
2022/12/26 10:58:39;;;;;;;5.67;4.33;;;;;;;11.87;100.00;98413.97;4168669;28;20729;-95
2022/12/26 11:00:42;;;;;;;5.93;4.00;;;;;;;11.87;100.00;98413.97;4148796;28;20711;-95
2022/12/26 11:02:45;;;;;;;5.20;3.60;;;;;;;11.89;100.00;98414.72;4166825;28;20652;-95
2022/12/26 11:04:59;;;;;;;4.67;3.70;;;;;;;11.88;100.00;98409.59;4172613;28;20651;-95
2022/12/26 11:07:28;;;;;;;6.00;3.67;;;;;;;11.88;100.00;98410.41;4179275;28;20674;-94
2022/12/26 11:09:42;;;;;;;4.70;3.83;;;;;;;11.88;100.00;98420.88;4188074;28;20659;-94
2022/12/26 11:11:53;;;;;;;5.90;3.60;;;;;;;11.85;100.00;98394.13;4173444;28;20631;-95
2022/12/26 11:14:03;;;;;;;6.50;3.97;;;;;;;11.90;100.00;98405.91;4142861;28;20634;-95
2022/12/26 11:16:13;;;;;;;5.73;4.00;;;;;;;11.88;100.00;98399.97;4152343;28;20638;-96
2022/12/26 11:18:54;;;;;;;6.27;3.77;;;;;;;11.86;100.00;98391.41;4152610;28;20633;-95
2022/12/26 11:21:39;;;;;;;5.30;3.60;;;;;;;11.79;100.00;98369.22;4174577;28;20690;-96
2022/12/26 11:24:18;;;;;;;7.10;4.70;;;;;;;11.82;100.00;98382.09;4162837;28;20673;-94
2022/12/26 11:26:25;;;;;;;5.63;3.90;;;;;;;11.84;100.00;98382.81;4141069;28;20642;-92
2022/12/26 11:28:42;;;;;;;5.70;4.20;;;;;;;11.84;100.00;98379.38;4146847;28;20643;-93
2022/12/26 11:30:48;;;;;;;5.63;3.70;;;;;;;11.88;100.00;98370.38;4136011;28;20638;-95
2022/12/26 11:33:07;;;;;;;9.07;4.60;;;;;;;11.88;100.00;98355.53;4154835;28;20649;-94
2022/12/26 11:35:18;;;;;;;5.70;4.03;;;;;;;11.90;100.00;98344.97;4144850;28;20640;-94
2022/12/26 11:37:26;;;;;;;5.37;3.70;;;;;;;11.89;100.00;98351.13;4183233;28;20633;-94
2022/12/26 11:39:33;;;;;;;4.87;3.50;;;;;;;11.88;100.00;98357.31;4139389;28;20685;-94
2022/12/26 11:41:40;;;;;;;4.27;3.50;;;;;;;11.87;100.00;98348.63;4142074;28;20631;-95
2022/12/26 11:43:44;;;;;;;7.93;5.40;;;;;;;11.87;100.00;98339.97;4154863;28;20616;-95
2022/12/26 11:45:50;;;;;;;8.73;5.87;;;;;;;11.86;100.00;98369.63;4125988;28;20647;-94
2022/12/26 11:47:55;;;;;;;6.83;5.30;;;;;;;11.85;100.00;98363.59;4160635;28;20635;-93
2022/12/26 11:50:00;;;;;;;6.60;5.90;;;;;;;11.88;100.00;98360.75;4141822;28;20634;-93
2022/12/26 11:52:31;;;;;;;9.80;7.00;;;;;;;11.90;100.00;98358.03;4171287;28;20710;-94
2022/12/26 11:54:37;;;;;;;8.40;5.60;;;;;;;11.93;100.00;98360.44;4155774;28;20992;-95
2022/12/26 11:56:42;;;;;;;5.53;4.70;;;;;;;11.92;100.00;98363.97;4141119;28;21279;-94
2022/12/26 11:58:45;;;;;;;5.80;4.60;;;;;;;11.92;100.00;98380.53;4154714;28;20724;-95
2022/12/26 12:01:16;;;;;;;5.30;4.50;;;;;;;11.88;100.00;98379.06;4172046;28;20649;-95
2022/12/26 12:03:37;;;;;;;6.77;4.77;;;;;;;11.79;100.00;98374.44;4141311;28;20631;-94
2022/12/26 12:05:53;;;;;;;5.80;4.80;;;;;;;11.78;100.00;98364.94;4143817;28;20758;-94
2022/12/26 12:08:05;;;;;;;5.50;4.83;;;;;;;11.78;100.00;98364.94;4141643;28;21160;-96
2022/12/26 12:10:41;;;;;;;6.80;4.50;;;;;;;11.77;100.00;98365.91;4173932;28;20621;-94
2022/12/26 12:12:51;;;;;;;4.83;3.70;;;;;;;11.74;100.00;98372.25;4161196;28;21285;-96
2022/12/26 12:15:01;;;;;;;5.10;4.60;;;;;;;11.74;100.00;98380.09;4173931;28;21010;-93
2022/12/26 12:17:14;;;;;;;4.03;3.60;;;;;;;11.76;100.00;98376.44;4144888;28;20626;-95
2022/12/26 12:19:28;;;;;;;7.00;4.10;;;;;;;11.80;100.00;98364.81;4172847;28;20697;-95
2022/12/26 12:21:36;;;;;;;6.47;4.50;;;;;;;11.84;100.00;98358.47;4173580;28;20667;-95
2022/12/26 12:23:51;;;;;;;5.80;4.50;;;;;;;11.88;100.00;98357.31;4153365;28;20675;-92
2022/12/26 12:26:02;;;;;;;5.30;4.00;;;;;;;11.93;100.00;98356.03;4155222;28;20642;-94